createdAt,value
2024-04-24T00:00:36.309Z,89.84
2024-04-24T00:03:09.120Z,89.87
2024-04-24T00:05:36.635Z,89.89
2024-04-24T00:08:03.547Z,90.19
2024-04-24T00:10:30.157Z,90.30
2024-04-24T00:12:56.789Z,90.18
2024-04-24T00:15:23.382Z,89.44
2024-04-24T00:17:50.011Z,89.47
2024-04-24T00:20:16.655Z,89.79
2024-04-24T00:22:43.220Z,89.71
2024-04-24T00:25:10.543Z,89.21
2024-04-24T00:27:37.146Z,89.41
2024-04-24T00:30:03.906Z,89.69
2024-04-24T00:32:30.560Z,89.56
2024-04-24T00:34:57.384Z,89.41
2024-04-24T00:37:24.014Z,89.19
2024-04-24T00:39:50.552Z,88.93
2024-04-24T00:42:21.027Z,88.88
2024-04-24T00:44:47.867Z,88.16
2024-04-24T00:47:16.515Z,88.29
2024-04-24T00:49:44.870Z,88.31
2024-04-24T00:52:11.766Z,88.59
2024-04-24T00:54:38.727Z,88.10
2024-04-24T00:57:05.555Z,87.74
2024-04-24T00:59:32.267Z,88.11
2024-04-24T01:01:59.006Z,88.66
2024-04-24T01:04:25.683Z,88.31
2024-04-24T01:06:52.219Z,88.61
2024-04-24T01:09:22.379Z,88.54
2024-04-24T01:11:48.989Z,88.62
2024-04-24T01:14:15.844Z,88.72
2024-04-24T01:16:43.860Z,89.29
2024-04-24T01:19:42.441Z,89.42
2024-04-24T01:22:27.845Z,89.29
2024-04-24T01:25:36.764Z,88.86
2024-04-24T01:28:04.527Z,88.96
2024-04-24T01:30:32.427Z,88.80
2024-04-24T01:32:59.176Z,89.09
2024-04-24T01:35:25.972Z,89.08
2024-04-24T01:37:52.571Z,88.74
2024-04-24T01:40:19.124Z,88.80
2024-04-24T01:42:45.658Z,88.96
2024-04-24T01:45:12.291Z,88.84
2024-04-24T01:47:38.917Z,88.50
2024-04-24T01:50:06.043Z,88.88
2024-04-24T01:52:32.604Z,88.90
2024-04-24T01:54:59.301Z,89.12
2024-04-24T01:57:25.853Z,88.60
2024-04-24T01:59:52.438Z,88.75
2024-04-24T02:02:19.142Z,89.08
2024-04-24T02:04:46.118Z,89.19
2024-04-24T02:07:12.664Z,88.65
2024-04-24T02:09:39.260Z,88.75
2024-04-24T02:12:10.666Z,88.55
2024-04-24T02:14:42.709Z,88.49
2024-04-24T02:17:09.861Z,88.55
2024-04-24T02:19:37.458Z,88.24
2024-04-24T02:22:04.306Z,88.30
2024-04-24T02:24:49.773Z,88.19
2024-04-24T02:27:19.441Z,87.81
2024-04-24T02:29:52.028Z,87.93
2024-04-24T02:32:24.053Z,86.65
2024-04-24T02:34:51.207Z,86.51
2024-04-24T02:37:17.806Z,86.51
2024-04-24T02:39:44.380Z,86.10
2024-04-24T02:42:10.933Z,85.89
2024-04-24T02:44:38.249Z,85.97
2024-04-24T02:47:04.955Z,86.48
2024-04-24T02:49:31.594Z,87.09
2024-04-24T02:51:58.222Z,87.30
2024-04-24T02:54:24.851Z,87.52
2024-04-24T02:56:53.315Z,87.90
2024-04-24T02:59:20.342Z,88.20
2024-04-24T03:01:47.100Z,88.43
2024-04-24T03:04:13.757Z,88.73
2024-04-24T03:06:44.333Z,88.55
2024-04-24T03:09:11.834Z,88.45
2024-04-24T03:11:42.143Z,88.20
2024-04-24T03:14:09.410Z,88.09
2024-04-24T03:16:36.784Z,88.01
2024-04-24T03:19:03.445Z,87.64
2024-04-24T03:21:30.009Z,87.95
2024-04-24T03:23:56.668Z,87.56
2024-04-24T03:26:23.606Z,87.22
2024-04-24T03:28:52.588Z,87.44
2024-04-24T03:31:20.369Z,86.69
2024-04-24T03:33:47.079Z,86.91
2024-04-24T03:36:13.783Z,86.88
2024-04-24T03:38:40.277Z,86.59
2024-04-24T03:41:06.880Z,86.35
2024-04-24T03:43:33.468Z,86.53
2024-04-24T03:46:00.915Z,86.70
2024-04-24T03:48:27.483Z,87.13
2024-04-24T03:50:54.210Z,87.26
2024-04-24T03:53:20.887Z,87.00
2024-04-24T03:55:47.525Z,87.00
2024-04-24T03:58:14.093Z,86.68
2024-04-24T04:00:40.672Z,86.64
2024-04-24T04:03:12.755Z,86.72
2024-04-24T04:05:42.540Z,86.94
2024-04-24T04:08:09.233Z,86.54
2024-04-24T04:10:35.776Z,86.21
2024-04-24T04:13:05.352Z,86.15
2024-04-24T04:15:32.113Z,86.78
2024-04-24T04:18:00.192Z,85.86
2024-04-24T04:20:27.258Z,85.79
2024-04-24T04:22:54.900Z,85.68
2024-04-24T04:25:21.534Z,85.76
2024-04-24T04:27:48.816Z,85.27
2024-04-24T04:30:16.390Z,85.52
2024-04-24T04:32:43.601Z,85.45
2024-04-24T04:35:10.299Z,85.55
2024-04-24T04:37:39.667Z,85.20
2024-04-24T04:40:07.371Z,84.94
2024-04-24T04:42:34.212Z,84.92
2024-04-24T04:45:00.862Z,85.08
2024-04-24T04:47:27.585Z,84.81
2024-04-24T04:49:54.282Z,85.03
2024-04-24T04:52:21.105Z,85.33
2024-04-24T04:54:47.748Z,84.98
2024-04-24T04:57:16.529Z,85.13
2024-04-24T04:59:43.071Z,84.98
2024-04-24T05:02:09.916Z,85.18
2024-04-24T05:04:36.891Z,84.98
2024-04-24T05:07:03.504Z,84.55
2024-04-24T05:09:30.800Z,84.87
2024-04-24T05:11:58.877Z,85.16
2024-04-24T05:14:25.572Z,84.93
2024-04-24T05:16:52.385Z,84.45
2024-04-24T05:19:19.180Z,84.05
2024-04-24T05:21:45.739Z,84.51
2024-04-24T05:24:12.362Z,84.37
2024-04-24T05:26:57.850Z,84.57
2024-04-24T05:29:24.637Z,84.35
2024-04-24T05:31:51.522Z,84.53
2024-04-24T05:34:18.177Z,84.56
2024-04-24T05:36:45.107Z,84.77
2024-04-24T05:39:11.976Z,84.62
2024-04-24T05:41:38.606Z,84.83
2024-04-24T05:44:05.461Z,85.08
2024-04-24T05:46:32.100Z,84.82
2024-04-24T05:48:58.877Z,84.74
2024-04-24T05:51:25.465Z,84.39
2024-04-24T05:53:52.091Z,84.24
2024-04-24T05:56:20.176Z,83.70
2024-04-24T05:58:48.452Z,83.28
2024-04-24T06:01:15.226Z,83.18
2024-04-24T06:03:41.917Z,83.57
2024-04-24T06:06:08.445Z,82.77
2024-04-24T06:08:35.111Z,83.36
2024-04-24T06:11:01.868Z,82.96
2024-04-24T06:13:28.560Z,83.12
2024-04-24T06:15:56.321Z,82.89
2024-04-24T06:18:23.072Z,83.05
2024-04-24T06:20:49.599Z,83.34
2024-04-24T06:23:16.267Z,82.51
2024-04-24T06:25:45.692Z,81.63
2024-04-24T06:28:12.681Z,81.51
2024-04-24T06:32:37.294Z,81.16
2024-04-24T06:35:04.707Z,80.81
2024-04-24T06:37:31.317Z,80.97
2024-04-24T06:39:57.865Z,80.26
2024-04-24T06:42:24.555Z,79.58
2024-04-24T06:44:53.058Z,80.16
2024-04-24T06:47:19.712Z,79.24
2024-04-24T06:49:46.338Z,77.51
2024-04-24T06:52:13.144Z,78.12
2024-04-24T06:54:39.842Z,79.00
2024-04-24T06:57:06.443Z,78.65
2024-04-24T06:59:34.731Z,79.14
2024-04-24T07:02:01.417Z,78.98
2024-04-24T07:04:28.164Z,79.07
2024-04-24T07:06:54.829Z,78.61
2024-04-24T07:09:21.441Z,78.02
2024-04-24T07:11:48.080Z,78.14
2024-04-24T07:14:14.837Z,77.13
2024-04-24T07:16:42.874Z,77.66
2024-04-24T07:19:12.061Z,75.49
2024-04-24T07:21:40.064Z,75.76
2024-04-24T07:24:06.842Z,75.76
2024-04-24T07:26:33.844Z,75.39
2024-04-24T07:29:00.468Z,75.03
2024-04-24T07:31:30.417Z,73.90
2024-04-24T07:33:57.061Z,74.31
2024-04-24T07:36:23.711Z,73.02
2024-04-24T07:38:50.258Z,73.17
2024-04-24T07:41:16.949Z,73.15
2024-04-24T07:43:43.624Z,74.25
2024-04-24T07:46:10.556Z,75.70
2024-04-24T07:48:37.259Z,76.32
2024-04-24T07:51:04.247Z,75.77
2024-04-24T07:53:33.971Z,75.27
2024-04-24T07:56:02.269Z,72.15
2024-04-24T07:58:33.386Z,71.30
2024-04-24T08:01:01.219Z,70.35
2024-04-24T08:03:27.957Z,69.77
2024-04-24T08:05:54.942Z,66.49
2024-04-24T08:08:21.572Z,63.23
2024-04-24T08:10:48.857Z,61.96
2024-04-24T08:13:17.072Z,60.43
2024-04-24T08:15:43.911Z,65.72
2024-04-24T08:18:10.529Z,67.92
2024-04-24T08:20:37.172Z,68.13
2024-04-24T08:23:04.138Z,68.45
2024-04-24T08:25:30.862Z,69.05
2024-04-24T08:27:57.456Z,63.35
2024-04-24T08:30:24.883Z,65.28
2024-04-24T08:32:51.554Z,66.70
2024-04-24T08:35:18.266Z,65.16
2024-04-24T08:37:44.849Z,65.52
2024-04-24T08:40:11.810Z,65.89
2024-04-24T08:42:38.666Z,66.70
2024-04-24T08:45:06.150Z,66.63
2024-04-24T08:47:34.138Z,66.44
2024-04-24T08:50:00.847Z,64.57
2024-04-24T08:52:28.882Z,64.00
2024-04-24T08:54:59.582Z,63.67
2024-04-24T08:57:27.813Z,63.45
2024-04-24T08:59:56.943Z,64.73
2024-04-24T09:02:29.031Z,67.24
2024-04-24T09:05:00.680Z,71.24
2024-04-24T09:07:28.743Z,75.31
2024-04-24T09:09:55.729Z,76.95
2024-04-24T09:12:22.909Z,78.66
2024-04-24T09:14:49.630Z,80.00
2024-04-24T09:17:16.301Z,75.55
2024-04-24T09:19:43.872Z,75.00
2024-04-24T09:22:10.554Z,75.36
2024-04-24T09:24:38.042Z,75.43
2024-04-24T09:27:04.680Z,75.55
2024-04-24T09:29:31.378Z,73.91
2024-04-24T09:31:58.113Z,69.32
2024-04-24T09:34:27.309Z,68.54
2024-04-24T09:36:55.246Z,65.02
2024-04-24T09:39:21.829Z,66.18
2024-04-24T09:41:49.330Z,65.65
2024-04-24T09:44:16.375Z,63.71
2024-04-24T09:46:53.283Z,66.18
2024-04-24T09:49:21.233Z,68.04
2024-04-24T09:51:50.962Z,69.32
2024-04-24T09:54:18.783Z,71.91
2024-04-24T09:56:50.098Z,74.30
2024-04-24T09:59:19.020Z,74.99
2024-04-24T10:01:54.865Z,74.39
2024-04-24T10:04:23.581Z,73.78
2024-04-24T10:06:52.099Z,73.00
2024-04-24T10:09:24.224Z,72.31
2024-04-24T10:11:57.421Z,70.43
2024-04-24T10:14:25.658Z,70.08
2024-04-24T10:16:53.897Z,67.99
2024-04-24T10:19:22.296Z,69.56
2024-04-24T10:21:49.733Z,70.71
2024-04-24T10:24:18.874Z,70.88
2024-04-24T10:26:46.476Z,69.24
2024-04-24T10:29:17.482Z,68.12
2024-04-24T10:31:48.829Z,69.29
2024-04-24T10:34:16.830Z,62.48
2024-04-24T10:36:44.455Z,62.93
2024-04-24T10:39:11.814Z,60.84
2024-04-24T10:41:38.902Z,60.47
2024-04-24T10:44:08.750Z,59.86
2024-04-24T10:46:38.957Z,59.95
2024-04-24T10:49:07.846Z,59.66
2024-04-24T10:51:37.288Z,58.43
2024-04-24T10:54:10.261Z,59.18
2024-04-24T10:56:41.573Z,59.42
2024-04-24T10:59:08.397Z,58.45
2024-04-24T11:01:42.977Z,59.48
2024-04-24T11:04:17.993Z,61.47
2024-04-24T11:06:45.724Z,62.08
2024-04-24T11:09:12.512Z,63.55
2024-04-24T11:11:39.590Z,64.63
2024-04-24T11:14:12.110Z,65.58
2024-04-24T11:16:41.165Z,65.45
2024-04-24T11:19:08.759Z,64.84
2024-04-24T11:21:35.527Z,65.01
2024-04-24T11:24:03.049Z,63.68
2024-04-24T11:26:35.238Z,60.70
2024-04-24T11:29:09.036Z,62.12
2024-04-24T11:31:44.489Z,64.10
2024-04-24T11:34:12.845Z,64.61
2024-04-24T11:36:40.890Z,64.96
2024-04-24T11:39:07.850Z,65.86
2024-04-24T11:41:37.772Z,66.20
2024-04-24T11:44:06.150Z,66.93
2024-04-24T11:46:33.504Z,70.47
2024-04-24T11:49:02.332Z,73.85
2024-04-24T11:51:34.962Z,76.06
2024-04-24T11:54:03.222Z,76.23
2024-04-24T11:56:34.782Z,75.48
2024-04-24T11:59:03.549Z,74.09
2024-04-24T12:01:31.944Z,73.02
2024-04-24T12:04:02.280Z,73.30
2024-04-24T12:06:32.744Z,71.60
2024-04-24T12:09:04.672Z,69.84
2024-04-24T12:11:41.618Z,68.06
2024-04-24T12:14:08.790Z,70.01
2024-04-24T12:16:35.371Z,69.63
2024-04-24T12:19:03.207Z,63.28
2024-04-24T12:21:29.885Z,62.76
2024-04-24T12:23:56.810Z,63.97
2024-04-24T12:26:23.491Z,62.35
2024-04-24T12:28:50.274Z,59.40
2024-04-24T12:31:17.938Z,60.69
2024-04-24T12:33:44.703Z,59.98
2024-04-24T12:36:11.344Z,58.79
2024-04-24T12:38:38.127Z,56.28
2024-04-24T12:41:04.732Z,59.02
2024-04-24T12:43:31.313Z,59.51
2024-04-24T12:45:57.857Z,59.60
2024-04-24T12:48:24.488Z,61.88
2024-04-24T12:50:51.427Z,63.72
2024-04-24T12:53:18.068Z,66.02
2024-04-24T12:55:44.940Z,74.18
2024-04-24T12:58:14.796Z,83.44
2024-04-24T13:00:42.972Z,86.29
2024-04-24T13:03:09.764Z,87.05
2024-04-24T13:05:36.823Z,87.53
2024-04-24T13:08:08.216Z,87.23
2024-04-24T13:10:35.030Z,84.90
2024-04-24T13:13:01.720Z,82.21
2024-04-24T13:15:31.597Z,73.42
2024-04-24T13:17:58.391Z,74.64
2024-04-24T13:20:25.325Z,72.41
2024-04-24T13:22:55.413Z,73.34
2024-04-24T13:25:22.894Z,74.29
2024-04-24T13:27:50.456Z,75.00
2024-04-24T13:30:17.135Z,74.39
2024-04-24T13:32:44.046Z,73.74
2024-04-24T13:35:10.760Z,76.29
2024-04-24T13:37:37.451Z,74.68
2024-04-24T13:40:04.207Z,78.23
2024-04-24T13:42:30.782Z,80.48
2024-04-24T13:44:57.423Z,84.83
2024-04-24T13:47:26.093Z,85.11
2024-04-24T13:49:52.728Z,86.34
2024-04-24T13:52:19.728Z,84.88
2024-04-24T13:54:46.263Z,86.28
2024-04-24T13:57:15.417Z,90.19
2024-04-24T13:59:42.148Z,91.93
2024-04-24T14:02:08.764Z,92.08
2024-04-24T14:04:35.473Z,89.20
2024-04-24T14:07:02.121Z,86.58
2024-04-24T14:09:30.295Z,85.40
2024-04-24T14:12:02.597Z,82.83
2024-04-24T14:14:30.965Z,82.14
2024-04-24T14:17:00.831Z,80.12
2024-04-24T14:19:28.060Z,77.34
2024-04-24T14:21:54.591Z,73.22
2024-04-24T14:24:21.434Z,74.65
2024-04-24T14:26:48.364Z,71.82
2024-04-24T14:29:16.613Z,71.38
2024-04-24T14:31:44.590Z,69.34
2024-04-24T14:34:12.041Z,72.12
2024-04-24T14:36:38.785Z,69.50
2024-04-24T14:39:05.390Z,70.64
2024-04-24T14:41:31.984Z,68.70
2024-04-24T14:43:58.976Z,69.71
2024-04-24T14:46:25.784Z,70.84
2024-04-24T14:48:53.515Z,71.42
2024-04-24T14:51:20.253Z,73.16
2024-04-24T14:53:46.996Z,71.92
2024-04-24T14:56:13.703Z,71.77
2024-04-24T14:58:40.618Z,72.24
2024-04-24T15:01:07.529Z,72.54
2024-04-24T15:03:34.176Z,71.59
2024-04-24T15:06:01.703Z,71.74
2024-04-24T15:08:28.486Z,70.89
2024-04-24T15:10:55.195Z,71.19
2024-04-24T15:13:22.096Z,72.96
2024-04-24T15:15:48.759Z,74.00
2024-04-24T15:18:18.488Z,74.42
2024-04-24T15:20:46.909Z,73.37
2024-04-24T15:23:14.967Z,74.57
2024-04-24T15:25:48.105Z,74.56
2024-04-24T15:28:14.836Z,73.77
2024-04-24T15:30:44.933Z,72.24
2024-04-24T15:33:11.830Z,70.22
2024-04-24T15:35:39.346Z,70.38
2024-04-24T15:38:06.255Z,70.70
2024-04-24T15:40:32.845Z,72.00
2024-04-24T15:42:59.442Z,72.03
2024-04-24T15:45:26.958Z,69.79
2024-04-24T15:47:54.083Z,70.91
2024-04-24T15:50:20.824Z,72.20
2024-04-24T15:52:47.656Z,71.13
2024-04-24T15:55:14.463Z,70.11
2024-04-24T15:57:42.733Z,70.51
2024-04-24T16:00:12.554Z,70.82
2024-04-24T16:02:39.924Z,71.22
2024-04-24T16:05:11.062Z,71.37
2024-04-24T16:07:37.708Z,71.84
2024-04-24T16:10:05.016Z,71.43
2024-04-24T16:12:31.572Z,71.39
2024-04-24T16:14:58.400Z,71.78
2024-04-24T16:17:25.090Z,71.73
2024-04-24T16:19:52.022Z,71.91
2024-04-24T16:22:18.633Z,71.92
2024-04-24T16:24:45.204Z,71.83
2024-04-24T16:27:11.818Z,72.04
2024-04-24T16:29:40.310Z,72.59
2024-04-24T16:32:07.428Z,72.56
2024-04-24T16:34:34.035Z,73.79
2024-04-24T16:37:03.739Z,78.68
2024-04-24T16:39:30.371Z,84.49
2024-04-24T16:41:57.177Z,87.69
2024-04-24T16:44:23.830Z,88.39
2024-04-24T16:46:50.393Z,90.23
2024-04-24T16:49:17.025Z,90.87
2024-04-24T16:51:43.588Z,90.30
2024-04-24T16:54:10.495Z,90.50
2024-04-24T16:56:38.730Z,90.28
2024-04-24T16:59:05.389Z,89.67
2024-04-24T17:01:34.240Z,89.05
2024-04-24T17:04:00.963Z,87.16
2024-04-24T17:06:27.641Z,87.22
2024-04-24T17:08:54.195Z,87.48
2024-04-24T17:11:21.999Z,86.68
2024-04-24T17:13:48.623Z,87.81
2024-04-24T17:16:15.321Z,87.74
2024-04-24T17:18:42.040Z,87.02
2024-04-24T17:21:09.677Z,85.89
2024-04-24T17:23:37.462Z,85.87
2024-04-24T17:26:04.451Z,85.47
2024-04-24T17:28:31.348Z,84.90
2024-04-24T17:30:57.924Z,84.78
2024-04-24T17:33:24.606Z,84.88
2024-04-24T17:35:52.514Z,85.44
2024-04-24T17:38:19.649Z,85.24
2024-04-24T17:40:46.411Z,85.04
2024-04-24T17:43:14.151Z,83.30
2024-04-24T17:45:42.057Z,82.87
2024-04-24T17:48:09.769Z,83.92
2024-04-24T17:50:37.735Z,82.38
2024-04-24T17:53:05.693Z,83.14
2024-04-24T17:57:37.025Z,83.56
2024-04-24T18:00:04.546Z,83.13
2024-04-24T18:02:31.836Z,82.67
2024-04-24T18:05:01.883Z,82.73
2024-04-24T18:07:29.168Z,83.28
2024-04-24T18:09:55.691Z,83.66
2024-04-24T18:12:22.252Z,83.27
2024-04-24T18:14:48.881Z,82.92
2024-04-24T18:17:17.136Z,82.25
2024-04-24T18:19:43.992Z,81.67
2024-04-24T18:22:10.711Z,80.58
2024-04-24T18:24:37.351Z,80.78
2024-04-24T18:27:04.111Z,80.37
2024-04-24T18:29:30.757Z,80.64
2024-04-24T18:31:57.394Z,80.89
2024-04-24T18:34:24.412Z,81.55
2024-04-24T18:36:51.053Z,82.05
2024-04-24T18:39:18.093Z,82.25
2024-04-24T18:41:44.754Z,82.35
2024-04-24T18:44:11.454Z,81.58
2024-04-24T18:46:38.048Z,82.52
2024-04-24T18:49:04.885Z,81.78
2024-04-24T18:51:33.745Z,81.47
2024-04-24T18:54:00.779Z,80.53
2024-04-24T18:56:27.414Z,80.90
2024-04-24T18:58:54.075Z,79.89
2024-04-24T19:01:23.614Z,80.22
2024-04-24T19:03:50.268Z,80.45
2024-04-24T19:06:16.888Z,81.36
2024-04-24T19:08:43.414Z,81.37
2024-04-24T19:11:10.068Z,81.33
2024-04-24T19:13:36.840Z,81.68
2024-04-24T19:16:03.606Z,81.76
2024-04-24T19:18:30.221Z,81.51
2024-04-24T19:21:03.398Z,80.78
2024-04-24T19:23:30.144Z,80.19
2024-04-24T19:25:56.994Z,80.34
2024-04-24T19:28:23.789Z,80.07
2024-04-24T19:30:50.346Z,79.71
2024-04-24T19:33:17.163Z,79.87
2024-04-24T19:35:43.909Z,79.93
2024-04-24T19:38:12.190Z,80.03
2024-04-24T19:40:39.042Z,80.18
2024-04-24T19:43:06.049Z,80.00
2024-04-24T19:45:33.997Z,80.36
2024-04-24T19:48:00.612Z,80.51
2024-04-24T19:50:28.478Z,80.27
2024-04-24T19:52:56.966Z,80.69
2024-04-24T19:55:23.597Z,80.93
2024-04-24T19:57:51.451Z,81.48
2024-04-24T20:00:18.022Z,80.78
2024-04-24T20:02:44.908Z,80.80
2024-04-24T20:05:11.633Z,80.43
2024-04-24T20:07:38.246Z,80.41
2024-04-24T20:10:05.724Z,80.57
2024-04-24T20:12:32.690Z,80.15
2024-04-24T20:14:59.220Z,80.32
2024-04-24T20:17:25.865Z,80.41
2024-04-24T20:19:52.772Z,80.74
2024-04-24T20:22:19.416Z,80.50
2024-04-24T20:24:45.987Z,80.53
2024-04-24T20:27:14.107Z,80.39
2024-04-24T20:29:42.152Z,80.84
2024-04-24T20:32:09.400Z,81.35
2024-04-24T20:34:36.263Z,80.87
2024-04-24T20:37:03.374Z,81.04
2024-04-24T20:39:30.992Z,81.21
2024-04-24T20:41:57.953Z,81.50
2024-04-24T20:44:25.942Z,81.97
2024-04-24T20:46:53.848Z,82.27
2024-04-24T20:49:21.791Z,82.58
2024-04-24T20:51:48.359Z,82.89
2024-04-24T20:54:16.152Z,82.65
2024-04-24T20:56:42.736Z,82.24
2024-04-24T20:59:09.825Z,82.22
2024-04-24T21:01:38.307Z,81.32
2024-04-24T21:04:05.458Z,81.50
2024-04-24T21:06:32.127Z,81.51
2024-04-24T21:08:59.246Z,81.51
2024-04-24T21:11:26.091Z,81.47
2024-04-24T21:13:58.368Z,82.04
2024-04-24T21:16:25.573Z,81.62
2024-04-24T21:18:52.747Z,81.88
2024-04-24T21:21:19.582Z,82.20
2024-04-24T21:23:46.307Z,82.35
2024-04-24T21:26:13.232Z,82.20
2024-04-24T21:28:40.100Z,82.03
2024-04-24T21:31:06.967Z,82.00
2024-04-24T21:33:34.564Z,82.14
2024-04-24T21:36:02.364Z,82.04
2024-04-24T21:38:32.630Z,82.28
2024-04-24T21:40:59.503Z,82.13
2024-04-24T21:43:27.068Z,82.20
2024-04-24T21:45:54.611Z,82.81
2024-04-24T21:48:21.510Z,83.25
2024-04-24T21:50:50.722Z,83.04
2024-04-24T21:53:17.451Z,83.18
2024-04-24T21:55:44.094Z,83.23
2024-04-24T21:58:10.638Z,83.38
2024-04-24T22:00:37.386Z,83.07
2024-04-24T22:03:04.931Z,83.48
2024-04-24T22:05:34.379Z,83.85
2024-04-24T22:08:03.540Z,84.05
2024-04-24T22:10:30.208Z,84.53
2024-04-24T22:13:01.359Z,84.26
2024-04-24T22:15:33.976Z,84.14
2024-04-24T22:18:02.290Z,84.19
2024-04-24T22:20:28.987Z,84.18
2024-04-24T22:22:55.587Z,84.20
2024-04-24T22:25:23.349Z,84.07
2024-04-24T22:27:51.084Z,83.78
2024-04-24T22:30:17.922Z,83.50
2024-04-24T22:32:44.667Z,83.33
2024-04-24T22:35:14.673Z,83.34
2024-04-24T22:37:41.293Z,83.11
2024-04-24T22:40:08.249Z,83.22
2024-04-24T22:42:34.822Z,83.54
2024-04-24T22:45:01.416Z,83.33
2024-04-24T22:47:28.110Z,83.79
2024-04-24T22:49:54.761Z,83.88
2024-04-24T22:52:21.373Z,83.85
2024-04-24T22:54:47.945Z,84.18
2024-04-24T22:57:14.685Z,84.42
2024-04-24T22:59:41.402Z,84.82
2024-04-24T23:02:08.461Z,84.94
2024-04-24T23:04:35.033Z,85.36
2024-04-24T23:07:01.672Z,85.43
2024-04-24T23:09:28.288Z,85.34
2024-04-24T23:11:54.991Z,85.39
2024-04-24T23:14:26.151Z,85.63
2024-04-24T23:16:54.081Z,85.82
2024-04-24T23:19:21.627Z,86.02
2024-04-24T23:21:48.978Z,86.19
2024-04-24T23:24:16.715Z,86.06
2024-04-24T23:26:47.932Z,86.28
2024-04-24T23:29:15.105Z,85.93
2024-04-24T23:31:41.878Z,86.10
2024-04-24T23:34:08.695Z,86.05
2024-04-24T23:36:35.309Z,85.71
2024-04-24T23:39:01.886Z,85.12
2024-04-24T23:41:28.473Z,84.91
2024-04-24T23:43:55.068Z,84.89
2024-04-24T23:46:21.741Z,84.70
2024-04-24T23:48:48.394Z,84.52
2024-04-24T23:51:14.993Z,84.48
2024-04-24T23:53:41.876Z,84.24
2024-04-24T23:56:08.565Z,84.66
